createdAt,value
2023-04-02T07:56:01.419Z,22.9379
2023-04-02T07:57:03.368Z,22.8281
2023-04-02T07:58:05.164Z,22.7554
2023-04-02T07:59:07.067Z,22.7165
2023-04-02T08:00:58.267Z,22.7167
2023-04-02T08:07:21.010Z,23.2473
2023-04-02T08:08:22.905Z,23.0569
2023-04-02T08:09:24.810Z,22.7192
2023-04-02T08:10:26.718Z,22.6808
2023-04-02T08:11:29.758Z,22.6450
2023-04-02T08:12:30.543Z,22.6308
2023-04-02T08:13:32.456Z,22.6227
2023-04-02T08:14:34.368Z,22.6327
2023-04-02T08:15:36.620Z,22.6869
2023-04-02T08:16:38.225Z,22.7381
2023-04-02T08:17:40.081Z,22.7992
2023-04-02T08:18:42.071Z,22.8296
2023-04-02T08:19:54.218Z,22.8473
2023-04-02T08:20:45.816Z,22.8681
2023-04-02T08:21:47.739Z,22.8873
2023-04-02T08:22:49.660Z,22.9054
2023-04-02T08:23:51.538Z,22.9254
2023-04-02T08:24:53.469Z,22.9308
2023-04-02T08:25:55.352Z,22.9500
2023-04-02T08:26:57.273Z,22.9669
2023-04-02T08:27:59.174Z,22.9781
2023-04-02T08:29:01.110Z,22.9800
2023-04-02T08:30:02.994Z,22.9938
2023-04-02T08:31:05.054Z,23.0138
2023-04-02T08:32:06.794Z,23.0238
2023-04-02T08:33:08.778Z,23.0350
2023-04-02T08:34:10.633Z,23.0835
2023-04-02T08:35:13.685Z,23.1396
2023-04-02T08:36:14.488Z,23.1535
2023-04-02T08:37:16.359Z,23.1815
2023-04-02T08:38:18.253Z,23.1973
2023-04-02T08:39:20.187Z,23.2138
2023-04-02T08:40:22.085Z,23.2338
2023-04-02T08:41:24.008Z,23.2008
2023-04-02T08:42:25.930Z,23.0127
2023-04-02T08:43:27.882Z,22.9323
2023-04-02T08:44:29.707Z,22.7158
2023-04-02T08:45:31.647Z,22.6673
2023-04-02T08:46:33.539Z,22.6296
2023-04-02T08:47:35.472Z,22.5835
2023-04-02T08:48:37.326Z,22.4769
2023-04-02T08:49:39.329Z,22.2850
2023-04-02T08:50:41.145Z,22.1685
2023-04-02T08:51:43.101Z,22.0531
2023-04-02T08:52:44.953Z,21.9946
2023-04-02T08:53:46.879Z,21.7981
2023-04-02T08:54:48.759Z,21.6181
2023-04-02T08:55:50.682Z,21.2815
2023-04-02T08:56:52.621Z,21.0315
2023-04-02T08:57:54.507Z,21.0835
2023-04-02T08:58:56.440Z,21.3308
2023-04-02T08:59:58.337Z,21.5781
2023-04-02T09:01:00.225Z,21.7115
2023-04-02T09:02:02.268Z,21.8292
2023-04-02T09:03:04.061Z,21.9465
2023-04-02T09:04:05.953Z,22.0677
2023-04-02T09:05:08.020Z,22.1485
2023-04-02T09:06:10.781Z,22.1762
2023-04-02T09:07:11.670Z,22.1942
2023-04-02T09:08:13.594Z,22.2162
2023-04-02T09:09:15.468Z,22.2462
2023-04-02T09:10:17.432Z,22.2715
2023-04-02T09:11:19.312Z,22.2988
2023-04-02T09:12:21.215Z,22.3169
2023-04-02T09:13:23.102Z,22.3365
2023-04-02T09:14:25.021Z,22.3519
2023-04-02T09:15:26.918Z,22.3627
2023-04-02T09:16:28.938Z,22.3804
2023-04-02T09:17:36.913Z,22.3942
2023-04-02T09:18:32.665Z,22.4077
2023-04-02T09:19:34.545Z,22.4277
2023-04-02T09:20:36.473Z,22.4504
2023-04-02T09:21:38.379Z,22.4735
2023-04-02T09:22:40.284Z,22.5015
2023-04-02T09:23:42.168Z,22.5250
2023-04-02T09:24:44.106Z,22.5496
2023-04-02T09:25:54.125Z,22.5719
2023-04-02T09:26:47.915Z,22.5869
2023-04-02T09:27:49.799Z,22.5996
2023-04-02T09:28:51.735Z,22.6165
2023-04-02T09:29:53.625Z,22.6262
2023-04-02T09:30:55.552Z,22.6323
2023-04-02T09:31:57.480Z,22.6427
2023-04-02T09:32:59.398Z,22.6469
2023-04-02T09:34:01.260Z,22.6538
2023-04-02T09:35:07.465Z,22.6577
2023-04-02T09:36:05.098Z,22.6642
2023-04-02T09:37:07.018Z,22.6735
2023-04-02T09:38:08.879Z,22.6842
2023-04-02T09:39:10.815Z,22.6950
2023-04-02T09:40:12.704Z,22.7042
2023-04-02T09:41:14.643Z,22.7158
2023-04-02T09:42:16.554Z,22.7192
2023-04-02T09:43:18.954Z,22.7238
2023-04-02T09:44:20.336Z,22.7362
2023-04-02T09:45:22.306Z,22.7396
2023-04-02T09:46:24.270Z,22.7442
2023-04-02T09:47:26.130Z,22.7588
2023-04-02T09:48:27.977Z,22.7746
2023-04-02T09:49:29.930Z,22.7823
2023-04-02T09:50:31.808Z,22.7900
2023-04-02T09:51:33.745Z,22.8000
2023-04-02T09:52:35.616Z,22.8177
2023-04-02T09:53:37.552Z,22.8277
2023-04-02T09:54:39.434Z,22.8373
2023-04-02T09:55:41.356Z,22.8554
2023-04-02T09:56:43.274Z,22.8650
2023-04-02T09:57:45.185Z,22.8696
2023-04-02T09:58:47.080Z,22.8777
2023-04-02T09:59:49.017Z,22.8869
2023-04-02T10:00:50.914Z,22.8931
2023-04-02T10:01:52.835Z,22.8831
2023-04-02T10:02:54.754Z,22.8935
2023-04-02T10:03:56.720Z,22.8896
2023-04-02T10:04:58.521Z,22.8958
2023-04-02T10:06:00.489Z,22.9000
2023-04-02T10:07:02.358Z,22.9042
2023-04-02T10:08:04.280Z,22.9169
2023-04-02T10:09:06.158Z,22.9215
2023-04-02T10:10:08.076Z,22.9223
2023-04-02T10:11:10.002Z,22.9269
2023-04-02T10:12:11.891Z,22.9358
2023-04-02T10:13:13.810Z,22.9296
2023-04-02T10:14:15.749Z,22.9273
2023-04-02T10:15:17.617Z,22.9338
2023-04-02T10:16:19.637Z,22.9404
2023-04-02T10:17:22.484Z,22.9469
2023-04-02T10:18:23.368Z,22.9658
2023-04-02T10:19:25.261Z,22.9731
2023-04-02T10:20:27.201Z,22.9858
2023-04-02T10:21:29.067Z,22.9908
2023-04-02T10:22:30.992Z,23.0127
2023-04-02T10:23:32.880Z,23.0208
2023-04-02T10:24:34.812Z,23.0319
2023-04-02T10:25:36.903Z,23.0442
2023-04-02T10:26:38.636Z,23.0542
2023-04-02T10:27:40.534Z,23.0619
2023-04-02T10:28:42.451Z,23.0688
2023-04-02T10:29:44.339Z,23.0677
2023-04-02T10:30:46.372Z,23.0704
2023-04-02T10:31:48.150Z,23.0715
2023-04-02T10:32:50.124Z,23.0719
2023-04-02T10:33:51.973Z,23.0731
2023-04-02T10:34:53.933Z,23.0819
2023-04-02T10:35:55.812Z,23.0873
2023-04-02T10:36:57.741Z,23.0923
2023-04-02T10:37:59.608Z,23.0950
2023-04-02T10:39:01.539Z,23.0985
2023-04-02T10:40:03.428Z,23.1077
2023-04-02T10:41:05.352Z,23.1142
2023-04-02T10:42:07.241Z,23.1265
2023-04-02T10:43:09.171Z,23.1369
2023-04-02T10:44:19.603Z,23.1408
2023-04-02T10:45:12.984Z,23.1462
2023-04-02T10:46:14.906Z,23.1527
2023-04-02T10:47:16.826Z,23.1596
2023-04-02T10:48:18.694Z,23.1604
2023-04-02T10:49:20.676Z,23.1627
2023-04-02T10:50:22.524Z,23.1623
2023-04-02T10:51:24.452Z,23.1665
2023-04-02T10:52:26.417Z,23.1727
2023-04-02T10:53:28.274Z,23.1792
2023-04-02T10:54:30.165Z,23.1823
2023-04-02T10:55:32.086Z,23.1881
2023-04-02T10:56:44.042Z,23.1946
2023-04-02T10:57:36.027Z,23.1988
2023-04-02T10:58:37.784Z,23.1992
2023-04-02T10:59:39.712Z,23.2019
2023-04-02T11:00:41.601Z,23.2038
2023-04-02T11:01:43.591Z,23.2058
2023-04-02T11:02:45.500Z,23.2104
2023-04-02T11:03:47.455Z,23.2142
2023-04-02T11:04:49.251Z,23.2231
2023-04-02T11:05:51.182Z,23.2281
2023-04-02T11:06:58.096Z,23.2331
2023-04-02T11:07:54.999Z,23.2373
2023-04-02T11:08:56.885Z,23.2431
2023-04-02T11:09:58.799Z,23.2496
2023-04-02T11:11:01.822Z,23.2592
2023-04-02T11:12:02.652Z,23.2650
2023-04-02T11:13:04.537Z,23.2685
2023-04-02T11:14:06.749Z,23.2708
2023-04-02T11:15:08.341Z,23.2812
2023-04-02T11:16:10.275Z,23.2881
2023-04-02T11:17:12.141Z,23.3019
2023-04-02T11:18:14.094Z,23.3058
2023-04-02T11:19:15.996Z,23.3150
2023-04-02T11:20:17.909Z,23.3273
2023-04-02T11:21:19.807Z,23.3327
2023-04-02T11:22:21.713Z,23.3412
2023-04-02T11:23:23.668Z,23.3431
2023-04-02T11:24:25.550Z,23.3423
2023-04-02T11:25:27.425Z,23.3377
2023-04-02T11:26:29.371Z,23.3365
2023-04-02T11:27:31.265Z,23.3431
2023-04-02T11:28:33.169Z,23.3550
2023-04-02T11:29:35.383Z,23.3612
2023-04-02T11:30:36.999Z,23.3719
2023-04-02T11:31:38.960Z,23.3750
2023-04-02T11:32:40.818Z,23.3777
2023-04-02T11:33:45.370Z,23.3858
2023-04-02T11:34:44.623Z,23.3873
2023-04-02T11:35:46.603Z,23.3915
2023-04-02T11:36:48.437Z,23.3912
2023-04-02T11:37:52.340Z,23.3854
2023-04-02T11:38:53.342Z,23.3835
2023-04-02T11:39:54.140Z,23.3831
2023-04-02T11:40:56.072Z,23.3815
2023-04-02T11:41:57.984Z,23.4012
2023-04-02T11:42:59.903Z,23.3965
2023-04-02T11:44:01.771Z,23.4031
2023-04-02T11:45:03.705Z,23.4000
2023-04-02T11:46:05.618Z,23.4058
2023-04-02T11:47:07.537Z,23.4092
2023-04-02T11:48:09.431Z,23.4069
2023-04-02T11:49:11.344Z,23.4138
2023-04-02T11:50:13.226Z,23.4146
2023-04-02T11:51:15.162Z,23.4150
2023-04-02T11:52:17.045Z,23.4188
2023-04-02T11:53:19.008Z,23.4281
2023-04-02T11:54:20.880Z,23.4358
2023-04-02T11:55:22.818Z,23.4492
2023-04-02T11:56:24.708Z,23.4538
2023-04-02T11:57:26.690Z,23.4631
2023-04-02T11:58:28.501Z,23.4712
2023-04-02T11:59:30.454Z,23.4796
2023-04-02T12:00:32.344Z,23.4792
2023-04-02T12:01:34.261Z,23.4873
2023-04-02T12:02:36.206Z,23.4927
2023-04-02T12:03:38.081Z,23.4954
2023-04-02T12:04:39.980Z,23.4885
2023-04-02T12:05:41.992Z,23.4862
2023-04-02T12:06:43.792Z,23.4935
2023-04-02T12:07:45.707Z,23.4912
2023-04-02T12:08:57.156Z,23.4923
2023-04-02T12:09:49.607Z,23.4962
2023-04-02T12:10:51.485Z,23.5088
2023-04-02T12:11:53.422Z,23.5081
2023-04-02T12:12:55.297Z,23.5181
2023-04-02T12:13:57.241Z,23.5265
2023-04-02T12:14:59.144Z,23.5381
2023-04-02T12:16:01.069Z,23.5408
2023-04-02T12:17:02.996Z,23.5404
2023-04-02T12:18:04.889Z,23.5488
2023-04-02T12:19:06.755Z,23.5496
2023-04-02T12:20:08.731Z,23.5346
2023-04-02T12:21:10.585Z,23.5262
2023-04-02T12:22:12.502Z,23.5242
2023-04-02T12:23:14.393Z,23.5169
2023-04-02T12:24:16.319Z,23.5142
2023-04-02T12:25:18.215Z,23.5100
2023-04-02T12:26:21.473Z,23.5115
2023-04-02T12:27:23.046Z,23.5192
2023-04-02T12:28:23.962Z,23.5196
2023-04-02T12:29:25.835Z,23.5142
2023-04-02T12:30:27.770Z,23.5173
2023-04-02T12:31:29.775Z,23.5315
2023-04-02T12:32:31.621Z,23.5515
2023-04-02T12:33:33.517Z,23.5581
2023-04-02T12:34:35.380Z,23.5704
2023-04-02T12:35:37.316Z,23.5723
2023-04-02T12:36:39.206Z,23.5700
2023-04-02T12:37:41.149Z,23.5681
2023-04-02T12:38:43.008Z,23.5673
2023-04-02T12:39:44.932Z,23.5815
2023-04-02T12:40:46.870Z,23.5688
2023-04-02T12:41:48.755Z,23.6242
2023-04-02T12:42:50.636Z,23.6462
2023-04-02T12:43:52.568Z,23.6423
2023-04-02T12:44:54.461Z,23.6446
2023-04-02T12:45:56.414Z,23.6450
2023-04-02T12:46:58.285Z,23.6458
2023-04-02T12:48:00.241Z,23.6458
2023-04-02T12:49:02.083Z,23.6462
2023-04-02T12:50:04.020Z,23.6496
2023-04-02T12:51:05.927Z,23.6577
2023-04-02T12:52:07.876Z,23.6715
2023-04-02T12:53:09.712Z,23.6781
2023-04-02T12:54:11.669Z,23.6777
2023-04-02T12:55:13.582Z,23.6865
2023-04-02T12:56:15.509Z,23.6927
2023-04-02T12:57:17.391Z,23.7119
2023-04-02T12:58:19.269Z,23.7446
2023-04-02T12:59:21.156Z,23.7412
2023-04-02T13:00:23.101Z,23.7477
2023-04-02T13:01:25.603Z,23.7404
2023-04-02T13:02:27.120Z,23.7365
2023-04-02T13:03:29.239Z,23.7404
2023-04-02T13:04:30.770Z,23.7581
2023-04-02T13:05:32.694Z,23.7596
2023-04-02T13:06:34.604Z,23.7485
2023-04-02T13:07:36.537Z,23.7408
2023-04-02T13:08:38.407Z,23.7354
2023-04-02T13:09:40.309Z,23.7381
2023-04-02T13:10:42.244Z,23.7504
2023-04-02T13:11:44.145Z,23.7554
2023-04-02T13:12:46.073Z,23.7596
2023-04-02T13:13:47.922Z,23.7700
2023-04-02T13:14:49.853Z,23.7827
2023-04-02T13:15:51.798Z,23.7800
2023-04-02T13:16:53.706Z,23.7738
2023-04-02T13:17:55.613Z,23.8000
2023-04-02T13:18:57.486Z,23.7865
2023-04-02T13:19:59.483Z,23.7654
2023-04-02T13:21:01.295Z,23.7592
2023-04-02T13:22:03.219Z,23.7612
2023-04-02T13:23:05.121Z,23.7658
2023-04-02T13:24:07.028Z,23.7692
2023-04-02T13:25:08.922Z,23.7765
2023-04-02T13:26:10.812Z,23.7715
2023-04-02T13:27:12.746Z,23.7762
2023-04-02T13:28:14.640Z,23.7781
2023-04-02T13:29:16.559Z,23.7785
2023-04-02T13:30:18.456Z,23.7800
2023-04-02T13:31:20.416Z,23.7800
2023-04-02T13:32:22.295Z,23.7873
2023-04-02T13:33:24.212Z,23.7950
2023-04-02T13:34:26.076Z,23.7935
2023-04-02T13:35:28.003Z,23.8027
2023-04-02T13:36:29.891Z,23.8081
2023-04-02T13:37:31.859Z,23.8150
2023-04-02T13:38:33.693Z,23.8112
2023-04-02T13:39:35.713Z,23.8154
2023-04-02T13:40:37.833Z,23.8208
2023-04-02T13:41:39.427Z,23.8219
2023-04-02T13:42:41.349Z,23.8200
2023-04-02T13:43:43.247Z,23.8138
2023-04-02T13:44:45.126Z,23.8085
2023-04-02T13:45:47.125Z,23.8092
2023-04-02T13:46:48.934Z,23.8108
2023-04-02T13:47:50.906Z,23.8192
2023-04-02T13:48:52.778Z,23.8265
2023-04-02T13:49:54.684Z,23.8327
2023-04-02T13:50:56.586Z,23.8365
2023-04-02T13:51:58.574Z,23.8454
2023-04-02T13:53:01.015Z,23.8531
2023-04-02T13:54:06.759Z,23.8592
2023-04-02T13:55:04.339Z,23.8654
2023-04-02T13:56:06.098Z,23.8681
2023-04-02T13:57:08.004Z,23.8692
2023-04-02T13:58:09.902Z,23.8750
2023-04-02T13:59:11.797Z,23.8815
2023-04-02T14:00:13.752Z,23.8804
2023-04-02T14:01:15.691Z,23.8869
2023-04-02T14:02:17.766Z,23.8900
2023-04-02T14:03:19.493Z,23.8908
2023-04-02T14:04:21.453Z,23.8965
2023-04-02T14:05:23.249Z,23.9015
2023-04-02T14:06:25.518Z,23.9046
2023-04-02T14:07:27.080Z,23.9023
2023-04-02T14:08:30.249Z,23.9012
2023-04-02T14:09:30.883Z,23.8996
2023-04-02T14:10:34.618Z,23.8969
2023-04-02T14:11:34.699Z,23.8942
2023-04-02T14:12:36.655Z,23.8873
2023-04-02T14:13:38.508Z,23.8923
2023-04-02T14:14:40.772Z,23.8912
2023-04-02T14:15:42.338Z,23.8942
2023-04-02T14:16:44.286Z,23.8946
2023-04-02T14:17:46.199Z,23.8981
2023-04-02T14:18:48.058Z,23.9000
2023-04-02T14:19:49.954Z,23.8973
2023-04-02T14:20:51.930Z,23.9015
2023-04-02T14:21:54.331Z,23.9035
2023-04-02T14:22:55.705Z,23.9062
2023-04-02T14:23:57.578Z,23.9065
2023-04-02T14:24:59.522Z,23.9150
2023-04-02T14:26:01.416Z,23.9177
2023-04-02T14:27:04.296Z,23.9204
2023-04-02T14:28:05.275Z,23.9227
2023-04-02T14:29:07.165Z,23.9231
2023-04-02T14:30:09.089Z,23.9181
2023-04-02T14:31:11.021Z,23.9200
2023-04-02T14:32:14.404Z,23.9108
2023-04-02T14:33:14.926Z,23.9092
2023-04-02T14:34:16.665Z,23.9058
2023-04-02T14:35:18.611Z,23.9019
2023-04-02T14:36:20.459Z,23.9050
2023-04-02T14:37:22.400Z,23.9104
2023-04-02T14:38:24.472Z,23.9231
2023-04-02T14:39:26.252Z,23.9227
2023-04-02T14:40:28.126Z,23.9188
2023-04-02T14:41:30.077Z,23.9077
2023-04-02T14:42:32.009Z,23.9050
2023-04-02T14:43:33.899Z,23.9004
2023-04-02T14:44:35.761Z,23.8992
2023-04-02T14:45:37.720Z,23.8931
2023-04-02T14:46:39.657Z,23.8869
2023-04-02T14:47:41.542Z,23.8827
2023-04-02T14:48:43.426Z,23.8838
2023-04-02T14:49:45.374Z,23.8796
2023-04-02T14:50:47.726Z,23.8762
2023-04-02T14:51:49.117Z,23.8781
2023-04-02T14:52:51.055Z,23.8731
2023-04-02T14:53:53.006Z,23.8731
2023-04-02T14:54:54.976Z,23.8685
2023-04-02T14:55:56.754Z,23.8681
2023-04-02T14:56:58.783Z,23.8642
2023-04-02T14:58:00.597Z,23.8635
2023-04-02T14:59:03.508Z,23.8596
2023-04-02T15:00:04.405Z,23.8581
2023-04-02T15:01:06.317Z,23.8519
2023-04-02T15:02:08.248Z,23.8515
2023-04-02T15:03:10.191Z,23.8558
2023-04-02T15:04:12.015Z,23.8512
2023-04-02T15:05:13.945Z,23.8550
2023-04-02T15:06:15.880Z,23.8508
2023-04-02T15:07:17.778Z,23.8473
2023-04-02T15:08:19.675Z,23.8423
2023-04-02T15:09:21.591Z,23.8531
2023-04-02T15:10:23.476Z,23.8477
2023-04-02T15:11:27.576Z,23.8438
2023-04-02T15:12:27.268Z,23.8404
2023-04-02T15:13:29.188Z,23.8392
2023-04-02T15:14:31.095Z,23.8288
2023-04-02T15:15:39.278Z,23.8292
2023-04-02T15:16:35.772Z,23.8273
2023-04-02T15:17:36.850Z,23.8165
2023-04-02T15:18:39.743Z,23.8096
2023-04-02T15:19:40.679Z,23.8038
2023-04-02T15:20:42.696Z,23.7942
2023-04-02T15:21:55.621Z,23.7904
2023-04-02T15:22:46.379Z,23.7946
2023-04-02T15:23:48.447Z,23.7888
2023-04-02T15:24:50.195Z,23.7877
2023-04-02T15:25:52.068Z,23.7804
2023-04-02T15:26:53.995Z,23.7835
2023-04-02T15:27:55.856Z,23.7854
2023-04-02T15:28:57.827Z,23.7792
2023-04-02T15:29:59.684Z,23.7762
2023-04-02T15:31:01.612Z,23.7708
2023-04-02T15:32:03.508Z,23.7700
2023-04-02T15:33:05.455Z,23.7681
2023-04-02T15:34:07.303Z,23.7635
2023-04-02T15:35:09.227Z,23.7581
2023-04-02T15:36:11.168Z,23.7546
2023-04-02T15:37:13.100Z,23.7542
2023-04-02T15:38:14.940Z,23.7488
2023-04-02T15:39:16.872Z,23.7462
2023-04-02T15:40:18.740Z,23.7481
2023-04-02T15:41:22.975Z,23.7469
2023-04-02T15:42:22.583Z,23.7504
2023-04-02T15:43:24.492Z,23.7435
2023-04-02T15:44:26.376Z,23.7377
2023-04-02T15:45:29.582Z,23.7400
2023-04-02T15:46:30.299Z,23.7358
2023-04-02T15:47:32.622Z,23.7319
2023-04-02T15:48:34.162Z,23.7285
2023-04-02T15:49:35.962Z,23.7262
2023-04-02T15:50:38.382Z,23.7242
2023-04-02T15:51:39.734Z,23.7192
2023-04-02T15:52:41.641Z,23.7192
2023-04-02T15:53:43.566Z,23.7162
2023-04-02T15:54:45.473Z,23.7158
2023-04-02T15:55:47.386Z,23.7150
2023-04-02T15:56:49.355Z,23.7146
2023-04-02T15:57:51.183Z,23.7135
2023-04-02T15:58:53.088Z,23.7123
2023-04-02T15:59:55.077Z,23.7115
2023-04-02T16:00:56.933Z,23.7104
2023-04-02T16:01:58.860Z,23.7073
2023-04-02T16:03:00.756Z,23.7065
2023-04-02T16:04:02.720Z,23.7073
2023-04-02T16:05:04.540Z,23.7031
2023-04-02T16:06:07.268Z,23.7050
2023-04-02T16:07:08.474Z,23.6996
2023-04-02T16:08:10.431Z,23.7004
2023-04-02T16:09:12.846Z,23.6958
2023-04-02T16:10:14.190Z,23.6969
2023-04-02T16:11:16.158Z,23.6942
2023-04-02T16:12:17.986Z,23.6931
2023-04-02T16:13:19.781Z,23.6931
2023-04-02T16:14:21.767Z,23.6892
2023-04-02T16:15:24.035Z,23.6892
2023-04-02T16:16:25.814Z,23.6877
2023-04-02T16:17:27.652Z,23.6869
2023-04-02T16:18:29.385Z,23.6862
2023-04-02T16:19:31.289Z,23.6819
2023-04-02T16:20:33.453Z,23.6800
2023-04-02T16:21:35.218Z,23.6796
2023-04-02T16:22:38.027Z,23.6773
2023-04-02T16:23:39.081Z,23.6765
2023-04-02T16:24:40.827Z,23.6769
2023-04-02T16:25:42.826Z,23.6788
2023-04-02T16:26:44.651Z,23.6758
2023-04-02T16:27:46.668Z,23.6715
2023-04-02T16:28:48.478Z,23.6696
2023-04-02T16:29:54.201Z,23.6688
2023-04-02T16:30:52.331Z,23.6681
2023-04-02T16:31:54.196Z,23.6665
2023-04-02T16:32:56.227Z,23.6665
2023-04-02T16:33:58.714Z,23.6665
2023-04-02T16:35:15.232Z,23.6662
2023-04-02T16:36:02.894Z,23.6646
2023-04-02T16:37:03.724Z,23.6608
2023-04-02T16:38:05.597Z,23.6608
2023-04-02T16:39:07.536Z,23.6623
2023-04-02T16:40:09.447Z,23.6604
2023-04-02T16:41:11.397Z,23.6562
2023-04-02T16:42:13.227Z,23.6565
2023-04-02T16:43:15.161Z,23.6546
2023-04-02T16:44:17.040Z,23.6504
2023-04-02T16:45:19.356Z,23.6504
2023-04-02T16:46:31.682Z,23.6492
2023-04-02T16:47:22.830Z,23.6454
2023-04-02T16:48:24.685Z,23.6438
2023-04-02T16:49:26.617Z,23.6431
2023-04-02T16:50:28.479Z,23.6458
2023-04-02T16:51:30.403Z,23.6442
2023-04-02T16:52:32.292Z,23.6423
2023-04-02T16:53:34.228Z,23.6419
2023-04-02T16:54:36.121Z,23.6369
2023-04-02T16:55:38.014Z,23.6381
2023-04-02T16:56:39.930Z,23.6342
2023-04-02T16:57:41.843Z,23.6292
2023-04-02T16:58:43.762Z,23.6281
2023-04-02T16:59:45.681Z,23.6269
2023-04-02T17:00:47.567Z,23.6246
2023-04-02T17:01:49.490Z,23.6177
2023-04-02T17:02:51.410Z,23.6162
2023-04-02T17:03:53.557Z,23.6165
2023-04-02T17:04:55.171Z,23.6146
2023-04-02T17:05:57.112Z,23.6088
2023-04-02T17:06:59.278Z,23.6119
2023-04-02T17:08:00.900Z,23.6119
2023-04-02T17:09:02.801Z,23.6054
2023-04-02T17:10:04.693Z,23.6054
2023-04-02T17:11:06.727Z,23.6062
2023-04-02T17:12:08.595Z,23.5996
2023-04-02T17:13:10.456Z,23.5950
2023-04-02T17:14:12.395Z,23.5938
2023-04-02T17:15:20.951Z,23.5888
2023-04-02T17:16:16.154Z,23.5850
2023-04-02T17:17:18.057Z,23.5800
2023-04-02T17:18:20.162Z,23.5815
2023-04-02T17:19:21.880Z,23.5819
2023-04-02T17:20:23.749Z,23.5742
2023-04-02T17:21:25.680Z,23.5677
2023-04-02T17:22:27.571Z,23.5635
2023-04-02T17:23:29.488Z,23.5635
2023-04-02T17:24:31.374Z,23.5577
2023-04-02T17:25:33.301Z,23.5558
2023-04-02T17:26:35.190Z,23.5523
2023-04-02T17:27:37.123Z,23.5500
2023-04-02T17:28:39.011Z,23.5465
2023-04-02T17:29:40.970Z,23.5388
2023-04-02T17:30:42.809Z,23.5719
2023-04-02T17:31:44.770Z,23.5738
2023-04-02T17:32:46.721Z,23.5577
2023-04-02T17:33:48.557Z,23.5531
2023-04-02T17:34:50.436Z,23.5531
2023-04-02T17:35:52.392Z,23.5462
2023-04-02T17:36:55.247Z,23.5358
2023-04-02T17:37:56.195Z,23.5381
2023-04-02T17:38:58.191Z,23.5358
2023-04-02T17:39:59.975Z,23.5338
2023-04-02T17:41:01.856Z,23.5327
2023-04-02T17:42:04.035Z,23.5327
2023-04-02T17:43:05.723Z,23.5281
2023-04-02T17:44:07.790Z,23.5254
2023-04-02T17:45:09.497Z,23.5265
2023-04-02T17:46:11.551Z,23.4954
2023-04-02T17:47:14.385Z,23.4427
2023-04-02T17:48:16.370Z,23.4015
2023-04-02T17:49:17.317Z,23.4035
2023-04-02T17:50:19.078Z,23.4050
2023-04-02T17:51:20.982Z,23.4350
2023-04-02T17:52:22.915Z,23.4350
2023-04-02T17:53:24.760Z,23.4408
2023-04-02T17:54:26.898Z,23.4704
2023-04-02T17:55:28.561Z,23.4908
2023-04-02T17:56:30.988Z,23.5012
2023-04-02T17:57:32.861Z,23.5169
2023-04-02T17:58:34.299Z,23.5258
2023-04-02T17:59:36.205Z,23.5269
2023-04-02T18:00:38.821Z,23.5204
2023-04-02T18:01:40.098Z,23.5277
2023-04-02T18:02:42.041Z,23.5235
2023-04-02T18:03:43.867Z,23.5235
2023-04-02T18:04:45.894Z,23.5335
2023-04-02T18:05:47.757Z,23.5292
2023-04-02T18:06:49.550Z,23.5519
2023-04-02T18:07:51.599Z,23.5135
2023-04-02T18:08:53.343Z,23.4877
2023-04-02T18:09:55.227Z,23.4873
2023-04-02T18:10:57.206Z,23.4896
2023-04-02T18:12:00.534Z,23.4946
2023-04-02T18:23:41.598Z,25.0679
2023-04-02T18:24:43.518Z,25.0054
